createdAt,value
2019-05-01T00:01:37.759Z,100633.61
2019-05-01T00:04:24.018Z,100627.73
2019-05-01T00:06:57.652Z,100616.77
2019-05-01T00:09:28.244Z,100612.22
2019-05-01T00:11:58.550Z,100613.55
2019-05-01T00:14:30.389Z,100610.97
2019-05-01T00:17:00.500Z,100601.17
2019-05-01T00:19:30.619Z,100604.55
2019-05-01T00:22:00.815Z,100593.34
2019-05-01T00:24:30.942Z,100593.18
2019-05-01T00:27:01.063Z,100588.09
2019-05-01T00:29:31.274Z,100578.61
2019-05-01T00:32:01.471Z,100575.23
2019-05-01T00:34:31.622Z,100576.10
2019-05-01T00:37:01.735Z,100569.44
2019-05-01T00:39:32.015Z,100576.49
2019-05-01T00:42:02.121Z,100565.73
2019-05-01T00:44:32.255Z,100563.22
2019-05-01T00:47:02.358Z,100558.05
2019-05-01T00:49:32.499Z,100552.41
2019-05-01T00:52:02.635Z,100548.09
2019-05-01T00:54:34.412Z,100544.97
2019-05-01T00:57:14.647Z,100548.95
2019-05-01T01:00:02.644Z,100544.02
2019-05-01T01:02:57.626Z,100541.13
2019-05-01T01:05:28.032Z,100528.17
2019-05-01T01:07:58.152Z,100528.64
2019-05-01T01:10:28.689Z,100522.14
2019-05-01T01:12:58.817Z,100522.14
2019-05-01T01:15:28.970Z,100522.53
2019-05-01T01:17:59.093Z,100519.08
2019-05-01T01:20:29.205Z,100512.03
2019-05-01T01:22:59.326Z,100507.10
2019-05-01T01:25:29.444Z,100502.41
2019-05-01T01:27:59.553Z,100505.14
2019-05-01T01:30:29.676Z,100500.29
2019-05-01T01:32:59.789Z,100496.38
2019-05-01T01:35:30.935Z,100491.28
2019-05-01T01:38:01.069Z,100490.89
2019-05-01T01:40:31.404Z,100486.91
2019-05-01T01:43:20.468Z,100472.81
2019-05-01T01:45:52.053Z,100470.77
2019-05-01T01:48:22.172Z,100464.98
2019-05-01T01:50:52.590Z,100466.31
2019-05-01T01:53:23.706Z,100464.13
2019-05-01T01:55:54.738Z,100458.41
2019-05-01T01:58:25.342Z,100451.76
2019-05-01T02:01:32.584Z,100449.17
2019-05-01T02:04:07.618Z,100448.31
2019-05-01T02:06:37.845Z,100445.80
2019-05-01T02:09:08.697Z,100436.07
2019-05-01T02:11:39.196Z,100424.25
2019-05-01T02:14:09.406Z,100420.27
2019-05-01T02:16:39.658Z,100414.78
2019-05-01T02:19:09.761Z,100414.27
2019-05-01T02:21:39.902Z,100401.75
2019-05-01T02:24:10.011Z,100396.83
2019-05-01T02:26:44.231Z,100395.34
2019-05-01T02:29:19.999Z,100392.52
2019-05-01T02:31:53.402Z,100382.42
2019-05-01T02:34:25.918Z,100377.49
2019-05-01T02:36:58.949Z,100368.88
2019-05-01T02:39:31.169Z,100373.19
2019-05-01T02:42:02.819Z,100353.38
2019-05-01T02:44:40.273Z,100355.80
2019-05-01T02:47:15.069Z,100355.63
2019-05-01T02:49:54.499Z,100353.23
2019-05-01T02:52:28.640Z,100345.80
2019-05-01T02:55:03.407Z,100343.52
2019-05-01T02:57:34.842Z,100338.81
2019-05-01T03:00:06.146Z,100333.16
2019-05-01T03:02:37.862Z,100321.27
2019-05-01T03:05:09.000Z,100313.03
2019-05-01T03:07:41.027Z,100317.49
2019-05-01T03:10:11.538Z,100303.68
2019-05-01T03:12:44.563Z,100302.81
2019-05-01T03:15:15.312Z,100300.67
2019-05-01T03:18:14.337Z,100295.39
2019-05-01T03:20:56.439Z,100285.43
2019-05-01T03:23:33.622Z,100294.87
2019-05-01T03:26:04.047Z,100295.87
2019-05-01T03:28:34.167Z,100281.70
2019-05-01T03:31:04.514Z,100286.77
2019-05-01T03:33:36.475Z,100279.16
2019-05-01T03:36:07.087Z,100266.34
2019-05-01T03:38:37.506Z,100268.66
2019-05-01T03:41:07.730Z,100253.34
2019-05-01T03:43:37.900Z,100252.27
2019-05-01T03:46:09.375Z,100247.33
2019-05-01T03:48:39.759Z,100245.90
2019-05-01T03:51:11.621Z,100243.82
2019-05-01T03:53:42.138Z,100242.59
2019-05-01T03:56:12.469Z,100240.60
2019-05-01T03:58:42.785Z,100235.98
2019-05-01T04:01:30.819Z,100228.75
2019-05-01T04:04:07.506Z,100220.75
2019-05-01T04:06:39.420Z,100221.43
2019-05-01T04:09:09.564Z,100215.43
2019-05-01T04:11:39.975Z,100224.11
2019-05-01T04:14:10.399Z,100221.35
2019-05-01T04:16:42.347Z,100210.20
2019-05-01T04:19:12.553Z,100197.14
2019-05-01T04:21:51.654Z,100202.71
2019-05-01T04:24:21.995Z,100206.81
2019-05-01T04:26:52.930Z,100193.08
2019-05-01T04:29:31.089Z,100195.09
2019-05-01T04:32:20.152Z,100185.65
2019-05-01T04:35:09.845Z,100179.45
2019-05-01T04:37:40.051Z,100179.83
2019-05-01T04:40:10.202Z,100198.81
2019-05-01T04:42:40.639Z,100205.86
2019-05-01T04:45:10.877Z,100199.77
2019-05-01T04:47:40.991Z,100198.24
2019-05-01T04:50:11.339Z,100201.09
2019-05-01T04:52:41.848Z,100201.55
2019-05-01T04:55:12.471Z,100198.78
2019-05-01T04:57:43.669Z,100195.17
2019-05-01T05:00:13.798Z,100190.11
2019-05-01T05:03:04.110Z,100185.02
2019-05-01T05:05:25.942Z,100179.23
2019-05-01T05:07:57.355Z,100180.06
2019-05-01T05:10:27.996Z,100180.03
2019-05-01T05:13:32.592Z,100178.23
2019-05-01T05:16:21.811Z,100169.73
2019-05-01T05:18:51.951Z,100172.00
2019-05-01T05:21:22.084Z,100168.59
2019-05-01T05:23:52.206Z,100158.56
2019-05-01T05:26:22.457Z,100152.81
2019-05-01T05:28:53.100Z,100147.98
2019-05-01T05:31:26.267Z,100141.56
2019-05-01T05:33:59.673Z,100140.28
2019-05-01T05:36:32.933Z,100140.89
2019-05-01T05:39:21.148Z,100131.64
2019-05-01T05:41:54.212Z,100130.97
2019-05-01T05:44:24.953Z,100129.52
2019-05-01T05:46:55.073Z,100148.77
2019-05-01T05:49:25.485Z,100150.90
2019-05-01T05:52:08.053Z,100148.00
2019-05-01T05:54:59.127Z,100137.72
2019-05-01T05:57:52.448Z,100127.83
2019-05-01T06:00:38.898Z,100130.70
2019-05-01T06:03:31.201Z,100129.31
2019-05-01T06:06:23.386Z,100129.33
2019-05-01T06:08:57.078Z,100129.07
2019-05-01T06:11:47.313Z,100125.91
2019-05-01T06:14:43.128Z,100119.21
2019-05-01T06:17:31.195Z,100107.03
2019-05-01T06:20:25.862Z,100105.02
2019-05-01T06:23:20.611Z,100106.30
2019-05-01T06:25:54.238Z,100102.66
2019-05-01T06:28:29.454Z,100089.41
2019-05-01T06:31:17.672Z,100091.44
2019-05-01T06:33:52.967Z,100093.42
2019-05-01T06:36:23.605Z,100094.34
2019-05-01T06:38:54.686Z,100089.64
2019-05-01T06:41:28.709Z,100091.27
2019-05-01T06:44:12.153Z,100094.45
2019-05-01T06:46:58.276Z,100090.80
2019-05-01T06:49:54.099Z,100093.73
2019-05-01T06:52:29.441Z,100094.21
2019-05-01T06:54:58.815Z,100091.80
2019-05-01T06:57:30.880Z,100087.89
2019-05-01T07:00:08.081Z,100089.23
2019-05-01T07:02:36.970Z,100088.27
2019-05-01T07:05:08.966Z,100082.62
2019-05-01T07:07:43.134Z,100078.33
2019-05-01T07:10:12.343Z,100070.14
2019-05-01T07:12:42.736Z,100081.11
2019-05-01T07:15:13.536Z,100079.50
2019-05-01T07:17:47.694Z,100076.41
2019-05-01T07:20:37.905Z,100076.77
2019-05-01T07:23:08.080Z,100084.45
2019-05-01T07:25:39.414Z,100070.13
2019-05-01T07:28:10.147Z,100067.28
2019-05-01T07:30:49.984Z,100068.88
2019-05-01T07:33:18.781Z,100070.87
2019-05-01T07:35:49.183Z,100067.41
2019-05-01T07:38:19.515Z,100062.59
2019-05-01T07:40:50.488Z,100057.36
2019-05-01T07:43:54.922Z,100064.70
2019-05-01T07:46:35.496Z,100064.14
2019-05-01T14:38:42.663Z,99557.63
2019-05-01T14:41:12.940Z,99549.43
2019-05-01T14:43:43.078Z,99548.12
2019-05-01T14:46:13.339Z,99547.45
2019-05-01T14:48:43.582Z,99541.88
2019-05-01T14:51:16.209Z,99535.64
2019-05-01T14:53:46.413Z,99536.31
2019-05-01T14:56:16.603Z,99537.58
2019-05-01T14:58:47.751Z,99530.66
2019-05-01T15:01:17.966Z,99525.24
2019-05-01T15:03:48.201Z,99525.27
2019-05-01T15:06:18.486Z,99515.44
2019-05-01T15:08:48.662Z,99510.86
2019-05-01T15:11:19.969Z,99512.89
2019-05-01T15:14:08.910Z,99512.72
2019-05-01T15:16:44.047Z,99511.89
2019-05-01T15:19:21.148Z,99514.75
2019-05-01T15:21:51.281Z,99514.03
2019-05-01T15:24:21.406Z,99514.00
2019-05-01T15:26:52.642Z,99504.09
2019-05-01T15:29:22.763Z,99501.22
2019-05-01T15:31:52.984Z,99501.55
2019-05-01T15:34:23.211Z,99493.28
2019-05-01T15:36:53.482Z,99500.72
2019-05-01T15:39:32.184Z,99498.00
2019-05-01T15:42:21.339Z,99495.46
2019-05-01T15:44:51.573Z,99498.19
2019-05-01T15:47:21.734Z,99497.17
2019-05-01T15:49:52.126Z,99492.61
2019-05-01T15:52:22.462Z,99486.34
2019-05-01T15:54:52.716Z,99486.34
2019-05-01T15:57:23.005Z,99484.28
2019-05-01T15:59:57.749Z,99472.97
2019-05-01T16:02:30.614Z,99468.67
2019-05-01T16:05:03.700Z,99469.52
2019-05-01T16:07:34.100Z,99465.58
2019-05-01T16:10:07.668Z,99461.56
2019-05-01T16:12:46.866Z,99457.51
2019-05-01T16:15:30.959Z,99451.98
2019-05-01T16:18:01.176Z,99447.75
2019-05-01T16:20:31.356Z,99446.23
2019-05-01T16:23:01.513Z,99434.56
2019-05-01T16:25:31.805Z,99429.13
2019-05-01T16:28:03.114Z,99426.73
2019-05-01T16:30:33.459Z,99430.92
2019-05-01T16:33:04.806Z,99431.41
2019-05-01T16:35:34.983Z,99429.03
2019-05-01T16:38:22.446Z,99426.22
2019-05-01T16:40:52.623Z,99418.73
2019-05-01T16:43:22.795Z,99423.78
2019-05-01T16:45:52.980Z,99422.34
2019-05-01T16:48:23.119Z,99420.03
2019-05-01T16:50:53.350Z,99424.93
2019-05-01T16:53:24.454Z,99425.83
2019-05-01T16:55:54.699Z,99410.07
2019-05-01T16:58:25.378Z,99408.02
2019-05-01T17:01:10.557Z,99398.80
2019-05-01T17:03:58.847Z,99398.75
2019-05-01T17:06:36.259Z,99396.08
2019-05-01T17:09:38.970Z,99396.80
2019-05-01T17:12:10.918Z,99402.16
2019-05-01T17:14:41.315Z,99417.80
2019-05-01T17:17:15.496Z,99410.77
2019-05-01T17:19:45.648Z,99399.39
2019-05-01T17:22:16.173Z,99395.48
2019-05-01T17:24:47.546Z,99395.53
2019-05-01T17:27:17.673Z,99387.83
2019-05-01T17:29:47.815Z,99386.54
2019-05-01T17:32:18.937Z,99385.91
2019-05-01T17:34:49.179Z,99392.08
2019-05-01T17:37:19.347Z,99383.59
2019-05-01T17:39:49.495Z,99382.34
2019-05-01T17:42:19.636Z,99384.91
2019-05-01T17:44:49.781Z,99383.41
2019-05-01T17:47:22.464Z,99383.37
2019-05-01T17:49:51.789Z,99378.20
2019-05-01T17:52:21.930Z,99378.70
2019-05-01T17:54:52.107Z,99379.98
2019-05-01T17:57:22.429Z,99378.70
2019-05-01T17:59:54.550Z,99377.89
2019-05-01T18:02:31.969Z,99382.50
2019-05-01T18:05:14.388Z,99392.31
2019-05-01T18:07:44.723Z,99399.96
2019-05-01T18:10:17.117Z,99395.09
2019-05-01T18:12:50.582Z,99395.79
2019-05-01T18:15:22.439Z,99392.77
2019-05-01T18:17:53.878Z,99393.12
2019-05-01T18:20:24.072Z,99390.71
2019-05-01T18:23:14.414Z,99380.77
2019-05-01T18:25:49.661Z,99374.84
2019-05-01T18:28:38.990Z,99372.62
2019-05-01T18:31:13.786Z,99369.92
2019-05-01T18:33:45.356Z,99367.81
2019-05-01T18:36:24.666Z,99356.80
2019-05-01T18:38:59.829Z,99354.88
2019-05-01T18:41:44.533Z,99355.81
2019-05-01T18:44:16.380Z,99347.61
2019-05-01T18:46:47.112Z,99348.30
2019-05-01T18:49:17.907Z,99337.91
2019-05-01T18:51:48.143Z,99334.55
2019-05-01T18:54:20.164Z,99327.51
2019-05-01T18:56:54.668Z,99326.19
2019-05-01T18:59:24.676Z,99325.19
2019-05-01T19:01:56.655Z,99320.80
2019-05-01T19:04:27.314Z,99319.11
2019-05-01T19:06:58.179Z,99310.02
2019-05-01T19:09:30.570Z,99310.37
2019-05-01T19:12:03.981Z,99306.33
2019-05-01T19:14:35.595Z,99302.78
2019-05-01T19:17:07.429Z,99297.55
2019-05-01T19:19:41.269Z,99288.97
2019-05-01T19:22:11.545Z,99278.69
2019-05-01T19:24:42.153Z,99276.96
2019-05-01T19:27:19.018Z,99276.43
2019-05-01T19:29:47.120Z,99262.11
2019-05-01T19:32:19.164Z,99264.77
2019-05-01T19:34:49.478Z,99268.13
2019-05-01T19:37:22.072Z,99261.64
2019-05-01T19:39:53.876Z,99259.23
2019-05-01T19:42:23.961Z,99258.22
2019-05-01T19:44:56.132Z,99263.77
2019-05-01T19:47:26.787Z,99252.84
2019-05-01T19:50:06.471Z,99254.53
2019-05-01T19:52:32.479Z,99261.92
2019-05-01T19:55:06.424Z,99253.53
2019-05-01T19:57:33.605Z,99249.17
2019-05-01T20:00:04.353Z,99242.81
2019-05-01T20:02:34.997Z,99234.80
2019-05-01T20:05:06.583Z,99240.31
2019-05-01T20:07:38.852Z,99252.48
2019-05-01T20:10:10.515Z,99256.34
2019-05-01T20:12:40.901Z,99253.64
2019-05-01T20:15:11.489Z,99242.00
2019-05-01T20:17:41.741Z,99240.14
2019-05-01T20:20:12.346Z,99233.04
2019-05-01T20:22:42.702Z,99225.11
2019-05-01T20:25:14.614Z,99226.25
2019-05-01T20:27:48.364Z,99221.76
2019-05-01T20:30:16.929Z,99215.64
2019-05-01T20:32:47.150Z,99211.00
2019-05-01T20:35:17.344Z,99203.21
2019-05-01T20:37:47.583Z,99198.84
2019-05-01T20:40:18.147Z,99190.06
2019-05-01T20:42:48.891Z,99181.89
2019-05-01T20:45:19.772Z,99173.20
2019-05-01T20:47:50.040Z,99174.12
2019-05-01T20:50:21.890Z,99173.95
2019-05-01T20:52:52.162Z,99164.84
2019-05-01T20:55:22.440Z,99154.63
2019-05-01T20:57:54.319Z,99154.83
2019-05-01T21:00:26.269Z,99148.70
2019-05-01T21:02:56.647Z,99138.88
2019-05-01T21:05:33.709Z,99139.42
2019-05-01T21:08:15.818Z,99137.77
2019-05-01T21:11:11.056Z,98953.39
2019-05-01T21:13:40.345Z,99123.73
2019-05-01T21:16:10.666Z,99118.99
2019-05-01T21:18:41.954Z,99109.15
2019-05-01T21:21:14.178Z,99109.14
2019-05-01T21:23:47.996Z,99111.15
2019-05-01T21:26:17.261Z,99112.70
2019-05-01T21:28:48.628Z,99106.50
2019-05-01T21:31:18.743Z,99101.84
2019-05-01T21:33:50.558Z,99100.67
2019-05-01T21:36:20.875Z,99094.00
2019-05-01T21:38:51.091Z,99074.97
2019-05-01T21:41:22.458Z,99072.91
2019-05-01T21:43:53.018Z,99073.11
2019-05-01T21:46:23.243Z,99059.89
2019-05-01T21:48:55.595Z,99053.00
2019-05-01T21:51:25.895Z,99042.54
2019-05-01T21:53:56.018Z,99039.45
2019-05-01T21:56:26.191Z,99035.52
2019-05-01T21:58:59.495Z,99041.87
2019-05-01T22:01:30.167Z,99040.61
2019-05-01T22:04:00.732Z,99029.27
2019-05-01T22:06:30.870Z,99017.05
2019-05-01T22:09:01.104Z,99004.27
2019-05-01T22:11:37.426Z,99005.48
2019-05-01T22:14:06.362Z,99003.31
2019-05-01T22:16:37.753Z,98996.63
2019-05-01T22:19:14.562Z,98994.22
2019-05-01T22:22:03.652Z,98984.58
2019-05-01T22:24:57.150Z,98984.30
2019-05-01T22:27:34.929Z,98977.53
2019-05-01T22:30:23.769Z,98973.52
2019-05-01T22:32:54.271Z,98975.24
2019-05-01T22:35:26.131Z,98969.25
2019-05-01T22:37:56.370Z,98971.36
2019-05-01T22:40:45.106Z,98965.23
2019-05-01T22:43:15.243Z,98955.00
2019-05-01T22:45:45.460Z,98941.69
2019-05-01T22:48:15.647Z,98940.98
2019-05-01T22:50:46.561Z,98942.61
2019-05-01T22:53:16.686Z,98940.56
2019-05-01T22:55:46.824Z,98935.91
2019-05-01T22:58:16.957Z,98940.14
2019-05-01T23:00:55.225Z,98928.15
2019-05-01T23:03:47.085Z,98912.87
2019-05-01T23:06:18.330Z,98903.69
2019-05-01T23:08:48.525Z,98902.42
2019-05-01T23:11:20.433Z,98895.52
2019-05-01T23:13:50.713Z,98899.81
2019-05-01T23:16:22.433Z,98889.45
2019-05-01T23:18:53.229Z,98881.08
2019-05-01T23:21:23.416Z,98877.75
2019-05-01T23:23:56.718Z,98865.07
2019-05-01T23:26:25.407Z,98863.17
2019-05-01T23:28:55.560Z,98865.29
2019-05-01T23:31:25.707Z,98857.89
2019-05-01T23:33:55.842Z,98850.98
2019-05-01T23:36:25.973Z,98848.86
2019-05-01T23:38:56.122Z,98852.59
2019-05-01T23:41:44.720Z,98844.63
2019-05-01T23:44:03.039Z,98840.35
2019-05-01T23:46:29.912Z,98856.07
2019-05-01T23:49:00.098Z,98845.21
2019-05-01T23:51:30.279Z,98829.29
2019-05-01T23:54:00.434Z,98828.50
2019-05-01T23:56:31.047Z,98820.67
2019-05-01T23:59:02.442Z,98822.36
